Time;durP1;ratioP1;P1;durP2;ratioP2;P2;SDS_P1;SDS_P2;PMS_P1;PMS_P2;Temp;Humidity;BMP_temperature;BMP_pressure;BME280_temperature;BME280_humidity;BME280_pressure;Samples;Min_cycle;Max_cycle;Signal;HPM_P1;HPM_P2
2022/10/13 00:02:12;;;;;;;41.40;17.83;;;;;;;;;;4874699;28;20068;-73
2022/10/13 00:08:00;;;;;;;28.80;15.05;;;;;;;;;;4934260;28;20037;-74
2022/10/13 00:10:34;;;;;;;32.75;15.13;;;;;;;;;;4927434;28;20237;-74
2022/10/13 00:13:30;;;;;;;31.60;15.55;;;;;;;;;;4927571;28;20438;-74
2022/10/13 00:16:04;;;;;;;30.85;16.33;;;;;;;;;;4959445;28;20094;-74
2022/10/13 00:18:35;;;;;;;32.70;18.23;;;;;;;;;;4936563;28;20030;-74
2022/10/13 00:21:32;;;;;;;43.97;18.55;;;;;;;;;;4930210;28;20041;-74
2022/10/13 00:24:10;;;;;;;40.97;18.88;;;;;;;;;;4924691;28;20087;-73
2022/10/13 00:26:38;;;;;;;41.15;17.30;;;;;;;;;;4951528;28;20068;-73
2022/10/13 00:29:10;;;;;;;30.38;16.02;;;;;;;;;;4949262;28;20059;-73
2022/10/13 00:31:38;;;;;;;32.00;16.33;;;;;;;;;;4956812;28;20080;-73
2022/10/13 00:34:10;;;;;;;32.45;15.68;;;;;;;;;;4872016;28;20123;-73
2022/10/13 00:37:06;;;;;;;32.40;16.60;;;;;;;;;;4880801;28;20052;-73
2022/10/13 00:39:50;;;;;;;;;;;;;;;;;;;;;
2022/10/13 00:42:45;;;;;;;38.25;23.45;;;;;;;;;;4924172;28;20561;-73
2022/10/13 00:45:24;;;;;;;42.78;25.00;;;;;;;;;;4910128;28;20450;-73
2022/10/13 00:48:12;;;;;;;41.10;24.98;;;;;;;;;;4917164;28;20545;-73
2022/10/13 00:50:50;;;;;;;46.40;29.98;;;;;;;;;;4872287;28;20030;-73
2022/10/13 00:53:20;;;;;;;44.95;26.73;;;;;;;;;;4871239;28;20654;-73
2022/10/13 00:56:00;;;;;;;39.45;25.25;;;;;;;;;;4899099;28;20112;-73
2022/10/13 00:58:39;;;;;;;39.85;21.20;;;;;;;;;;4927964;28;20048;-73
2022/10/13 01:01:18;;;;;;;42.13;20.48;;;;;;;;;;4918709;28;20194;-73
2022/10/13 01:03:57;;;;;;;34.85;19.13;;;;;;;;;;4914566;28;20068;-73
2022/10/13 01:06:42;;;;;;;36.50;19.38;;;;;;;;;;4927893;28;20431;-72
2022/10/13 01:09:08;;;;;;;35.83;18.63;;;;;;;;;;4895723;28;20306;-72
2022/10/13 01:11:45;;;;;;;35.15;19.70;;;;;;;;;;4909460;28;20079;-73
2022/10/13 01:14:19;;;;;;;36.47;21.35;;;;;;;;;;4901540;28;20037;-74
2022/10/13 01:17:23;;;;;;;36.42;23.15;;;;;;;;;;4857519;28;22625;-74
2022/10/13 01:19:51;;;;;;;34.28;17.05;;;;;;;;;;4885530;28;20307;-74
2022/10/13 01:22:39;;;;;;;25.25;11.63;;;;;;;;;;4906794;28;20565;-75
2022/10/13 01:26:06;;;;;;;38.13;17.17;;;;;;;;;;4878827;28;20210;-75
2022/10/13 01:28:52;;;;;;;28.38;16.15;;;;;;;;;;4856132;28;20050;-74
2022/10/13 01:31:52;;;;;;;28.63;13.90;;;;;;;;;;4886608;28;23380;-74
2022/10/13 01:34:41;;;;;;;27.15;11.60;;;;;;;;;;4880265;28;20054;-73
2022/10/13 01:37:48;;;;;;;21.83;9.18;;;;;;;;;;4793059;28;20182;-73
2022/10/13 01:43:20;;;;;;;18.05;6.05;;;;;;;;;;4854001;28;20042;-73
2022/10/13 01:45:56;;;;;;;14.63;2.65;;;;;;;;;;4861624;28;20377;-72
2022/10/13 01:48:23;;;;;;;18.15;3.15;;;;;;;;;;4850313;28;20035;-73
2022/10/13 01:50:53;;;;;;;10.98;2.30;;;;;;;;;;4921842;28;20522;-74
2022/10/13 01:53:25;;;;;;;11.45;3.20;;;;;;;;;;4944915;28;20025;-74
2022/10/13 01:55:53;;;;;;;;;;;;;;;;;;4916736;28;20041;-73
2022/10/13 01:58:28;;;;;;;8.68;4.60;;;;;;;;;;4901601;28;19976;-73
2022/10/13 02:01:21;;;;;;;9.68;4.28;;;;;;;;;;4932888;28;20108;-74
2022/10/13 02:03:49;;;;;;;21.20;10.95;;;;;;;;;;4935445;28;20299;-74
2022/10/13 02:06:54;;;;;;;20.23;11.48;;;;;;;;;;4900575;28;20053;-74
2022/10/13 02:09:29;;;;;;;18.83;9.65;;;;;;;;;;4863148;28;20144;-73
2022/10/13 02:12:15;;;;;;;16.70;8.73;;;;;;;;;;4941586;28;20174;-73
2022/10/13 02:14:54;;;;;;;26.48;16.23;;;;;;;;;;4936723;28;20494;-73
2022/10/13 02:17:25;;;;;;;20.63;10.32;;;;;;;;;;4932406;28;20201;-73
2022/10/13 02:20:04;;;;;;;20.20;8.65;;;;;;;;;;4952472;28;20072;-72
2022/10/13 02:22:48;;;;;;;22.15;12.48;;;;;;;;;;4908965;28;20442;-73
2022/10/13 02:25:26;;;;;;;23.20;11.88;;;;;;;;;;4894229;28;20422;-73
2022/10/13 02:27:59;;;;;;;22.35;7.55;;;;;;;;;;4874198;28;20568;-73
2022/10/13 02:30:51;;;;;;;25.35;11.52;;;;;;;;;;4903398;28;20033;-72
2022/10/13 02:33:22;;;;;;;20.27;9.85;;;;;;;;;;4938455;28;20623;-72
2022/10/13 02:35:57;;;;;;;18.38;9.32;;;;;;;;;;4935424;28;20306;-73
2022/10/13 02:38:26;;;;;;;18.85;9.95;;;;;;;;;;4911781;28;20041;-74
2022/10/13 02:41:08;;;;;;;16.23;7.65;;;;;;;;;;4917177;28;20529;-73
2022/10/13 02:43:37;;;;;;;32.88;14.05;;;;;;;;;;4928328;28;20119;-73
2022/10/13 02:46:26;;;;;;;29.45;14.20;;;;;;;;;;4935995;28;21891;-73
2022/10/13 02:48:55;;;;;;;28.70;16.40;;;;;;;;;;4934649;28;20044;-73
2022/10/13 02:51:23;;;;;;;29.88;16.13;;;;;;;;;;4939074;28;20671;-73
2022/10/13 02:54:07;;;;;;;38.10;20.70;;;;;;;;;;4904671;28;20585;-73
2022/10/13 02:56:40;;;;;;;31.85;20.98;;;;;;;;;;4928858;28;20080;-74
2022/10/13 02:59:14;;;;;;;40.03;20.85;;;;;;;;;;4920854;28;20425;-74
2022/10/13 03:01:47;;;;;;;35.72;22.25;;;;;;;;;;4951839;28;20041;-75
2022/10/13 03:04:16;;;;;;;50.55;27.55;;;;;;;;;;4876577;28;20058;-74
2022/10/13 03:06:54;;;;;;;42.53;25.38;;;;;;;;;;4932467;28;20556;-74
2022/10/13 03:09:33;;;;;;;42.28;25.70;;;;;;;;;;4921716;28;20259;-74
2022/10/13 03:12:07;;;;;;;44.83;25.10;;;;;;;;;;4960047;28;20590;-74
2022/10/13 03:14:36;;;;;;;41.55;24.05;;;;;;;;;;4936282;28;20115;-75
2022/10/13 03:17:04;;;;;;;43.05;24.38;;;;;;;;;;4939226;28;20037;-74
2022/10/13 03:19:36;;;;;;;42.90;28.15;;;;;;;;;;4932337;28;20322;-74
2022/10/13 03:22:03;;;;;;;48.53;27.45;;;;;;;;;;4925956;28;20118;-74
2022/10/13 03:24:57;;;;;;;50.92;31.48;;;;;;;;;;4931344;28;20030;-74
2022/10/13 03:27:57;;;;;;;54.03;34.72;;;;;;;;;;4875284;28;20072;-74
2022/10/13 03:30:44;;;;;;;62.15;37.45;;;;;;;;;;4838377;28;20028;-74
2022/10/13 03:33:16;;;;;;;59.25;37.28;;;;;;;;;;4861496;29;20051;-74
2022/10/13 03:35:50;;;;;;;68.32;40.80;;;;;;;;;;4913771;28;20026;-74
2022/10/13 03:38:21;;;;;;;54.20;35.83;;;;;;;;;;4874343;28;20035;-74
2022/10/13 03:40:51;;;;;;;59.53;35.58;;;;;;;;;;4901612;28;20065;-75
2022/10/13 03:43:20;;;;;;;60.47;35.92;;;;;;;;;;4970782;28;20037;-76
2022/10/13 03:45:58;;;;;;;63.90;34.55;;;;;;;;;;4960242;28;20137;-76
2022/10/13 03:48:25;;;;;;;52.67;31.65;;;;;;;;;;4923148;28;20030;-76
2022/10/13 03:50:59;;;;;;;48.70;30.42;;;;;;;;;;4957457;28;20116;-76
2022/10/13 03:53:24;;;;;;;59.05;33.72;;;;;;;;;;4968449;28;20406;-77
2022/10/13 03:55:57;;;;;;;58.90;34.85;;;;;;;;;;4938049;28;20139;-78
2022/10/13 03:58:41;;;;;;;64.00;37.90;;;;;;;;;;4907395;28;20585;-78
2022/10/13 04:01:10;;;;;;;65.78;36.65;;;;;;;;;;4938277;28;20034;-77
2022/10/13 04:03:35;;;;;;;64.40;36.10;;;;;;;;;;4929043;28;20304;-77
2022/10/13 04:06:06;;;;;;;64.00;37.70;;;;;;;;;;4923250;28;20045;-77
2022/10/13 04:08:35;;;;;;;58.00;35.63;;;;;;;;;;4882545;28;20236;-77
2022/10/13 04:11:07;;;;;;;59.20;35.08;;;;;;;;;;4880062;28;20566;-77
2022/10/13 04:13:35;;;;;;;58.97;35.95;;;;;;;;;;4913906;28;21859;-77
2022/10/13 04:16:14;;;;;;;64.07;36.17;;;;;;;;;;4908590;28;20225;-78
2022/10/13 04:18:40;;;;;;;59.33;34.38;;;;;;;;;;4920487;28;20553;-78
2022/10/13 04:21:10;;;;;;;61.47;36.30;;;;;;;;;;4880075;28;20030;-78
2022/10/13 04:23:44;;;;;;;59.42;37.38;;;;;;;;;;4932982;28;20033;-78
2022/10/13 04:26:14;;;;;;;62.65;36.03;;;;;;;;;;4914935;28;20514;-78
2022/10/13 04:28:39;;;;;;;57.35;36.92;;;;;;;;;;4908769;28;20117;-77
2022/10/13 04:31:08;;;;;;;53.70;35.75;;;;;;;;;;4938078;28;20686;-78
2022/10/13 04:33:34;;;;;;;60.65;37.92;;;;;;;;;;4968442;28;20705;-79
2022/10/13 04:36:02;;;;;;;57.83;38.63;;;;;;;;;;4956298;28;20300;-78
2022/10/13 04:38:39;;;;;;;59.97;37.28;;;;;;;;;;4966833;28;20277;-79
2022/10/13 04:41:06;;;;;;;56.75;36.20;;;;;;;;;;4932609;28;21856;-78
2022/10/13 04:43:34;;;;;;;60.50;38.65;;;;;;;;;;4960075;28;20433;-78
2022/10/13 04:46:15;;;;;;;62.10;39.55;;;;;;;;;;4935273;28;20500;-78
2022/10/13 04:48:46;;;;;;;63.42;38.38;;;;;;;;;;4909224;28;20043;-77
2022/10/13 04:51:24;;;;;;;54.03;36.35;;;;;;;;;;4939115;28;20638;-77
2022/10/13 04:53:56;;;;;;;52.50;31.15;;;;;;;;;;4955588;28;20357;-77
2022/10/13 04:56:22;;;;;;;51.88;30.95;;;;;;;;;;4933393;28;20045;-77
2022/10/13 04:58:51;;;;;;;42.40;19.92;;;;;;;;;;4967932;28;20135;-77
2022/10/13 05:01:18;;;;;;;39.15;16.40;;;;;;;;;;4965364;28;20058;-76
2022/10/13 05:03:44;;;;;;;25.00;10.75;;;;;;;;;;4962769;28;20159;-78
2022/10/13 05:06:21;;;;;;;16.00;6.03;;;;;;;;;;4964925;28;20804;-74
2022/10/13 05:08:52;;;;;;;21.42;5.90;;;;;;;;;;4910798;28;20512;-74
2022/10/13 05:11:19;;;;;;;15.00;5.60;;;;;;;;;;4946724;28;20711;-74
2022/10/13 05:13:45;;;;;;;24.13;5.78;;;;;;;;;;4951041;28;20461;-75
2022/10/13 05:16:17;;;;;;;14.75;4.50;;;;;;;;;;4962811;28;20044;-75
2022/10/13 05:18:53;;;;;;;16.30;5.20;;;;;;;;;;4913960;28;20068;-75
2022/10/13 05:21:23;;;;;;;21.92;6.25;;;;;;;;;;4932294;28;20033;-76
2022/10/13 05:23:52;;;;;;;15.50;5.45;;;;;;;;;;4928249;28;20482;-76
2022/10/13 05:26:18;;;;;;;20.33;6.00;;;;;;;;;;4946441;28;20175;-77
2022/10/13 05:28:49;;;;;;;19.77;6.10;;;;;;;;;;4921866;28;20084;-74
2022/10/13 05:31:22;;;;;;;19.42;5.78;;;;;;;;;;4932244;28;20199;-74
2022/10/13 05:33:54;;;;;;;14.95;5.97;;;;;;;;;;4935846;28;20049;-74
2022/10/13 05:36:33;;;;;;;19.73;6.43;;;;;;;;;;4962498;28;20044;-74
2022/10/13 05:39:08;;;;;;;21.10;7.18;;;;;;;;;;4923110;28;20095;-74
2022/10/13 05:41:38;;;;;;;29.27;13.85;;;;;;;;;;4944921;28;20037;-75
2022/10/13 05:44:06;;;;;;;55.90;27.10;;;;;;;;;;4950008;28;20068;-74
2022/10/13 05:46:32;;;;;;;66.53;33.88;;;;;;;;;;4939777;28;20038;-74
2022/10/13 05:49:01;;;;;;;63.05;36.83;;;;;;;;;;4967903;28;21896;-74
2022/10/13 05:51:31;;;;;;;61.78;38.10;;;;;;;;;;4961298;28;20075;-74
2022/10/13 05:54:07;;;;;;;69.53;39.47;;;;;;;;;;4965492;28;20095;-74
2022/10/13 05:56:56;;;;;;;70.45;37.97;;;;;;;;;;4958019;28;20065;-74
2022/10/13 05:59:48;;;;;;;66.70;39.70;;;;;;;;;;4923155;28;21404;-74
2022/10/13 06:02:19;;;;;;;76.15;40.15;;;;;;;;;;4961251;28;20041;-74
2022/10/13 06:04:56;;;;;;;68.75;38.72;;;;;;;;;;4913681;28;20034;-74
2022/10/13 06:07:27;;;;;;;73.55;40.55;;;;;;;;;;4955912;28;20123;-74
2022/10/13 06:10:07;;;;;;;70.80;39.85;;;;;;;;;;4934674;28;20480;-74
2022/10/13 06:12:48;;;;;;;63.42;37.40;;;;;;;;;;4957931;28;20112;-74
2022/10/13 06:15:14;;;;;;;60.10;37.65;;;;;;;;;;4925013;28;20035;-74
2022/10/13 06:18:06;;;;;;;72.85;39.17;;;;;;;;;;4946563;28;20041;-74
2022/10/13 06:20:40;;;;;;;63.45;36.58;;;;;;;;;;4922399;28;20102;-74
2022/10/13 06:23:06;;;;;;;63.55;37.25;;;;;;;;;;4933591;28;20789;-74
2022/10/13 06:25:32;;;;;;;70.63;38.28;;;;;;;;;;4954837;28;20093;-74
2022/10/13 06:28:01;;;;;;;66.00;38.75;;;;;;;;;;4925247;28;20774;-74
2022/10/13 06:30:32;;;;;;;60.47;36.92;;;;;;;;;;4956636;28;20034;-74
2022/10/13 06:33:04;;;;;;;70.75;39.50;;;;;;;;;;4924875;28;20178;-74
2022/10/13 06:35:33;;;;;;;68.65;35.20;;;;;;;;;;4921761;28;20872;-74
2022/10/13 06:38:02;;;;;;;;;;;;;;;;;;4928885;28;21024;-74
2022/10/13 06:40:28;;;;;;;66.82;38.72;;;;;;;;;;4896183;28;19945;-74
2022/10/13 06:42:57;;;;;;;68.80;41.05;;;;;;;;;;4944903;28;21756;-74
2022/10/13 06:45:33;;;;;;;81.10;46.10;;;;;;;;;;4939762;28;20299;-74
2022/10/13 06:47:59;;;;;;;67.57;41.97;;;;;;;;;;4945135;28;20053;-73
2022/10/13 06:50:37;;;;;;;60.53;35.97;;;;;;;;;;4960470;28;20147;-74
2022/10/13 06:53:11;;;;;;;60.50;37.03;;;;;;;;;;4916531;28;20041;-74
2022/10/13 06:55:45;;;;;;;75.43;42.10;;;;;;;;;;4931246;28;20172;-74
2022/10/13 06:58:16;;;;;;;82.32;50.38;;;;;;;;;;4913613;28;20053;-74
2022/10/13 07:00:45;;;;;;;69.55;46.13;;;;;;;;;;4934504;28;20124;-74
2022/10/13 07:03:20;;;;;;;68.40;43.35;;;;;;;;;;4970230;28;20110;-74
2022/10/13 07:05:46;;;;;;;67.20;35.83;;;;;;;;;;4938272;28;20045;-74
2022/10/13 07:08:51;;;;;;;47.67;32.30;;;;;;;;;;4948675;28;20117;-74
2022/10/13 07:11:49;;;;;;;48.22;28.92;;;;;;;;;;4834492;29;21289;-74
2022/10/13 07:14:20;;;;;;;43.90;27.80;;;;;;;;;;4893079;28;20753;-74
2022/10/13 07:16:56;;;;;;;45.33;26.92;;;;;;;;;;4927137;28;20087;-74
2022/10/13 07:19:35;;;;;;;;;;;;;;;;;;;;;
2022/10/13 07:22:04;;;;;;;44.10;25.02;;;;;;;;;;4942763;28;20347;-74
2022/10/13 07:24:35;;;;;;;38.28;23.75;;;;;;;;;;4960915;28;22780;-73
2022/10/13 07:27:19;;;;;;;42.28;24.08;;;;;;;;;;4947943;28;20205;-73
2022/10/13 07:29:49;;;;;;;45.47;23.83;;;;;;;;;;4954159;28;20060;-74
2022/10/13 07:32:27;;;;;;;36.22;23.10;;;;;;;;;;4932444;28;20844;-74
2022/10/13 07:34:54;;;;;;;40.78;23.52;;;;;;;;;;4933257;28;20038;-73
2022/10/13 07:37:20;;;;;;;43.47;23.63;;;;;;;;;;4964287;28;20148;-74
2022/10/13 07:39:48;;;;;;;40.35;23.77;;;;;;;;;;4971337;28;20033;-74
2022/10/13 07:42:16;;;;;;;43.35;22.40;;;;;;;;;;4955106;28;20069;-74
2022/10/13 07:44:46;;;;;;;38.25;22.10;;;;;;;;;;4960051;28;20036;-74
2022/10/13 07:47:12;;;;;;;39.97;21.00;;;;;;;;;;4945619;28;20048;-74
2022/10/13 07:49:42;;;;;;;39.75;22.15;;;;;;;;;;4974519;28;20030;-74
2022/10/13 07:52:11;;;;;;;38.17;20.25;;;;;;;;;;4963329;28;20829;-74
2022/10/13 07:54:42;;;;;;;31.20;13.88;;;;;;;;;;4967893;28;20434;-74
2022/10/13 07:57:15;;;;;;;30.23;12.50;;;;;;;;;;4946962;28;20045;-75
2022/10/13 07:59:59;;;;;;;24.83;9.52;;;;;;;;;;4966196;28;20269;-74
2022/10/13 08:02:30;;;;;;;24.13;10.07;;;;;;;;;;4936867;28;20618;-74
2022/10/13 08:04:59;;;;;;;21.27;9.75;;;;;;;;;;4935853;28;20041;-74
2022/10/13 08:07:31;;;;;;;22.75;12.13;;;;;;;;;;4941064;28;20038;-74
2022/10/13 08:10:06;;;;;;;25.15;11.88;;;;;;;;;;4942912;28;20107;-73
2022/10/13 08:12:38;;;;;;;29.65;11.82;;;;;;;;;;4958154;28;20104;-73
2022/10/13 08:15:15;;;;;;;28.58;12.35;;;;;;;;;;4932124;28;20108;-73
2022/10/13 08:17:44;;;;;;;25.10;11.18;;;;;;;;;;4943378;28;20045;-74
2022/10/13 08:20:13;;;;;;;;;;;;;;;;;;4960462;28;20030;-73
2022/10/13 08:22:42;;;;;;;25.00;10.77;;;;;;;;;;4944124;28;20219;-74
2022/10/13 08:25:10;;;;;;;;;;;;;;;;;;4957667;28;20062;-75
2022/10/13 08:27:37;;;;;;;25.77;11.05;;;;;;;;;;4973073;28;19971;-75
2022/10/13 08:30:03;;;;;;;27.52;11.00;;;;;;;;;;4947359;28;20473;-75
2022/10/13 08:32:31;;;;;;;27.60;10.38;;;;;;;;;;4955073;28;20221;-74
2022/10/13 08:35:00;;;;;;;23.48;9.57;;;;;;;;;;4937464;28;20136;-74
2022/10/13 08:37:26;;;;;;;19.45;9.60;;;;;;;;;;4934864;28;20037;-74
2022/10/13 08:40:00;;;;;;;18.08;9.35;;;;;;;;;;4970524;28;20048;-73
2022/10/13 08:42:28;;;;;;;19.70;8.85;;;;;;;;;;4970113;28;20076;-74
2022/10/13 08:44:59;;;;;;;15.85;7.85;;;;;;;;;;4951809;28;20037;-74
2022/10/13 08:47:40;;;;;;;20.23;8.00;;;;;;;;;;4960660;28;20410;-75
2022/10/13 08:50:11;;;;;;;17.27;7.60;;;;;;;;;;4922033;28;20084;-74
2022/10/13 08:52:45;;;;;;;11.43;5.60;;;;;;;;;;4926748;28;20551;-75
2022/10/13 08:55:26;;;;;;;15.05;5.18;;;;;;;;;;4941313;28;20033;-74
2022/10/13 08:57:56;;;;;;;14.98;5.68;;;;;;;;;;4962488;28;20048;-75
2022/10/13 09:00:36;;;;;;;17.75;5.60;;;;;;;;;;4917916;28;20571;-75
2022/10/13 09:03:28;;;;;;;15.52;6.13;;;;;;;;;;4945109;28;20206;-74
2022/10/13 09:06:17;;;;;;;17.13;7.45;;;;;;;;;;4921256;28;20369;-74
2022/10/13 09:08:55;;;;;;;16.60;6.28;;;;;;;;;;4955444;28;20102;-74
2022/10/13 09:11:33;;;;;;;10.75;5.43;;;;;;;;;;4969860;28;20450;-74
2022/10/13 09:14:04;;;;;;;10.82;4.40;;;;;;;;;;4956755;28;20041;-74
2022/10/13 09:17:10;;;;;;;12.30;4.15;;;;;;;;;;4936887;28;20045;-74
2022/10/13 09:19:39;;;;;;;12.80;2.95;;;;;;;;;;4930749;28;20034;-73
2022/10/13 09:22:21;;;;;;;6.88;3.58;;;;;;;;;;4973821;28;20043;-73
2022/10/13 09:25:08;;;;;;;11.57;3.40;;;;;;;;;;4936472;28;20045;-73
2022/10/13 09:27:42;;;;;;;18.63;3.15;;;;;;;;;;4930527;28;20038;-73
2022/10/13 09:30:28;;;;;;;6.70;2.10;;;;;;;;;;4956942;28;20896;-73
2022/10/13 09:33:12;;;;;;;5.97;1.80;;;;;;;;;;4953389;28;21055;-73
2022/10/13 09:35:39;;;;;;;8.95;2.15;;;;;;;;;;4959351;28;20033;-73
2022/10/13 09:38:21;;;;;;;7.57;2.00;;;;;;;;;;4921134;28;20894;-73
2022/10/13 09:41:06;;;;;;;10.52;2.38;;;;;;;;;;4899703;28;20046;-73
2022/10/13 09:44:04;;;;;;;11.32;2.50;;;;;;;;;;4945187;28;20536;-73
2022/10/13 09:47:10;;;;;;;10.77;2.60;;;;;;;;;;4905784;28;20044;-73
2022/10/13 09:49:48;;;;;;;12.75;2.65;;;;;;;;;;4899597;28;20038;-74
2022/10/13 09:52:51;;;;;;;7.90;2.28;;;;;;;;;;4895775;28;20465;-73
2022/10/13 09:55:48;;;;;;;;;;;;;;;;;;;;;
2022/10/13 09:58:34;;;;;;;9.07;2.25;;;;;;;;;;4901266;28;20523;-73
2022/10/13 10:01:21;;;;;;;6.13;2.40;;;;;;;;;;4936540;28;20504;-73
2022/10/13 10:03:56;;;;;;;7.28;2.30;;;;;;;;;;4952932;28;20029;-73
2022/10/13 10:06:28;;;;;;;12.18;2.80;;;;;;;;;;4936033;28;20553;-74
2022/10/13 10:09:33;;;;;;;6.47;2.08;;;;;;;;;;4938719;28;20087;-74
2022/10/13 10:12:05;;;;;;;5.45;1.80;;;;;;;;;;4942609;28;20029;-75
2022/10/13 10:14:47;;;;;;;6.07;1.65;;;;;;;;;;4941112;28;20194;-74
2022/10/13 10:17:18;;;;;;;5.80;1.73;;;;;;;;;;4899902;28;20034;-75
2022/10/13 10:20:03;;;;;;;5.78;1.85;;;;;;;;;;4944523;28;20033;-74
2022/10/13 10:22:56;;;;;;;3.20;1.42;;;;;;;;;;4909527;28;20060;-74
2022/10/13 10:25:32;;;;;;;5.57;1.60;;;;;;;;;;4919082;28;20076;-74
2022/10/13 10:28:21;;;;;;;5.85;1.75;;;;;;;;;;4957539;28;20294;-74
2022/10/13 10:31:15;;;;;;;3.72;1.40;;;;;;;;;;4934165;28;20040;-74
2022/10/13 10:33:43;;;;;;;7.68;1.92;;;;;;;;;;4941033;28;20153;-74
2022/10/13 10:36:20;;;;;;;5.22;1.60;;;;;;;;;;4949059;28;20034;-73
2022/10/13 10:38:59;;;;;;;4.50;2.17;;;;;;;;;;4938975;28;20041;-74
2022/10/13 10:41:31;;;;;;;4.07;1.50;;;;;;;;;;4930091;28;20170;-73
2022/10/13 10:44:03;;;;;;;6.18;1.70;;;;;;;;;;4933080;28;20049;-74
2022/10/13 10:46:40;;;;;;;4.60;1.80;;;;;;;;;;4960823;28;20462;-73
2022/10/13 10:49:28;;;;;;;4.45;1.63;;;;;;;;;;4958521;28;20152;-73
2022/10/13 10:52:14;;;;;;;5.63;1.63;;;;;;;;;;4954697;28;20259;-73
2022/10/13 10:58:14;;;;;;;4.97;1.90;;;;;;;;;;4882087;28;20068;-73
2022/10/13 11:01:00;;;;;;;3.95;2.08;;;;;;;;;;4957420;28;20038;-73
2022/10/13 11:03:35;;;;;;;5.63;1.60;;;;;;;;;;4916964;28;20285;-73
2022/10/13 11:06:33;;;;;;;3.65;1.63;;;;;;;;;;4904303;28;20045;-73
2022/10/13 11:09:02;;;;;;;5.38;1.90;;;;;;;;;;4931024;28;20136;-72
2022/10/13 11:11:29;;;;;;;5.40;1.70;;;;;;;;;;4958763;28;20307;-73
2022/10/13 11:13:56;;;;;;;4.43;1.52;;;;;;;;;;4967383;28;20038;-73
2022/10/13 11:16:35;;;;;;;4.85;1.67;;;;;;;;;;4958617;28;22394;-73
2022/10/13 11:19:07;;;;;;;4.80;1.55;;;;;;;;;;4942127;28;22249;-73
2022/10/13 11:21:34;;;;;;;;;;;;;;;;;;4975893;28;20548;-73
2022/10/13 11:24:02;;;;;;;4.95;1.70;;;;;;;;;;4960916;28;20562;-73
2022/10/13 11:26:30;;;;;;;3.85;1.50;;;;;;;;;;4961294;28;20460;-73
2022/10/13 11:28:58;;;;;;;5.60;1.40;;;;;;;;;;4968357;28;21749;-73
2022/10/13 11:31:34;;;;;;;6.45;1.50;;;;;;;;;;4952044;28;20187;-73
2022/10/13 11:34:00;;;;;;;7.68;1.58;;;;;;;;;;4945209;28;20045;-73
2022/10/13 11:36:30;;;;;;;4.07;1.30;;;;;;;;;;4943647;28;21238;-73
2022/10/13 11:39:05;;;;;;;4.95;1.60;;;;;;;;;;4957061;28;20107;-73
2022/10/13 11:41:59;;;;;;;3.90;1.45;;;;;;;;;;4961633;28;20037;-72
2022/10/13 11:44:25;;;;;;;;;;;;;;;;;;4910176;28;20539;-73
2022/10/13 11:46:53;;;;;;;4.45;1.25;;;;;;;;;;4932149;28;20459;-72
2022/10/13 11:49:42;;;;;;;3.42;1.48;;;;;;;;;;4935422;28;20462;-72
2022/10/13 11:52:24;;;;;;;4.25;1.40;;;;;;;;;;4899604;28;20287;-73
2022/10/13 11:55:04;;;;;;;5.20;1.70;;;;;;;;;;4955433;28;20033;-72
2022/10/13 11:57:35;;;;;;;5.88;1.50;;;;;;;;;;4964857;28;20077;-73
2022/10/13 12:00:18;;;;;;;8.68;1.70;;;;;;;;;;4947737;28;20052;-72
2022/10/13 12:02:48;;;;;;;4.15;1.75;;;;;;;;;;4923115;28;20197;-73
2022/10/13 12:05:31;;;;;;;8.32;2.00;;;;;;;;;;4958213;28;20524;-73
2022/10/13 12:08:10;;;;;;;5.30;1.50;;;;;;;;;;4967714;28;20111;-72
2022/10/13 12:10:39;;;;;;;6.07;1.58;;;;;;;;;;4960155;28;20037;-72
2022/10/13 12:13:33;;;;;;;6.90;1.92;;;;;;;;;;4962585;28;20038;-72
2022/10/13 12:16:09;;;;;;;5.53;1.60;;;;;;;;;;4930999;28;20122;-72
2022/10/13 12:18:39;;;;;;;4.20;1.73;;;;;;;;;;4931309;28;20030;-72
2022/10/13 12:21:09;;;;;;;3.58;1.42;;;;;;;;;;4957436;28;20037;-72
2022/10/13 12:23:35;;;;;;;3.42;1.48;;;;;;;;;;4952140;28;20026;-72
2022/10/13 12:26:04;;;;;;;4.78;1.52;;;;;;;;;;4953216;28;20042;-73
2022/10/13 12:28:44;;;;;;;2.97;1.48;;;;;;;;;;4951838;28;20316;-73
2022/10/13 12:31:19;;;;;;;3.60;1.60;;;;;;;;;;4922023;28;20459;-72
2022/10/13 12:33:53;;;;;;;4.47;1.63;;;;;;;;;;4970161;28;20034;-72
2022/10/13 12:36:21;;;;;;;4.45;1.55;;;;;;;;;;4942541;28;20176;-72
2022/10/13 12:39:09;;;;;;;4.28;1.73;;;;;;;;;;4958901;28;20193;-72
2022/10/13 12:41:38;;;;;;;4.78;1.42;;;;;;;;;;4958062;28;20076;-73
2022/10/13 12:44:13;;;;;;;6.32;1.70;;;;;;;;;;4937184;28;20041;-73
2022/10/13 12:46:57;;;;;;;7.60;1.85;;;;;;;;;;4872643;28;20305;-72
2022/10/13 12:49:37;;;;;;;2.45;1.42;;;;;;;;;;4884214;28;20069;-72
2022/10/13 12:52:22;;;;;;;5.57;1.75;;;;;;;;;;4889784;28;20038;-73
2022/10/13 12:54:53;;;;;;;;;;;;;;;;;;4932886;28;20041;-73
2022/10/13 12:57:33;;;;;;;7.18;1.80;;;;;;;;;;4919495;28;20035;-72
2022/10/13 13:00:00;;;;;;;4.05;1.60;;;;;;;;;;4924664;28;20080;-72
2022/10/13 13:02:33;;;;;;;5.22;1.50;;;;;;;;;;4907093;28;20042;-71
2022/10/13 13:05:21;;;;;;;6.35;1.88;;;;;;;;;;4915735;28;20041;-72
2022/10/13 13:07:56;;;;;;;6.57;1.70;;;;;;;;;;4952313;28;20045;-72
2022/10/13 13:10:21;;;;;;;6.18;1.67;;;;;;;;;;4965994;28;20643;-72
2022/10/13 13:12:51;;;;;;;5.72;1.85;;;;;;;;;;4954303;28;20081;-73
2022/10/13 13:15:25;;;;;;;4.95;1.60;;;;;;;;;;4937071;28;20043;-73
2022/10/13 13:17:56;;;;;;;5.63;1.80;;;;;;;;;;4944962;28;21962;-73
2022/10/13 13:20:31;;;;;;;3.95;1.40;;;;;;;;;;4908618;28;20382;-72
2022/10/13 13:23:06;;;;;;;11.75;5.05;;;;;;;;;;4916932;28;20383;-72
2022/10/13 13:25:34;;;;;;;2.75;1.48;;;;;;;;;;4913954;28;20251;-73
2022/10/13 13:28:11;;;;;;;6.50;3.60;;;;;;;;;;4955935;28;20138;-73
2022/10/13 13:30:48;;;;;;;5.38;2.00;;;;;;;;;;4966221;28;20044;-72
2022/10/13 13:33:17;;;;;;;2.17;1.35;;;;;;;;;;4909027;28;20037;-72
2022/10/13 13:35:54;;;;;;;4.68;2.00;;;;;;;;;;4881308;28;20046;-73
2022/10/13 13:38:25;;;;;;;5.60;3.35;;;;;;;;;;4931987;28;20134;-72
2022/10/13 13:40:57;;;;;;;4.80;2.20;;;;;;;;;;4877424;28;20042;-72
2022/10/13 13:43:32;;;;;;;4.03;1.50;;;;;;;;;;4902703;28;20102;-73
2022/10/13 13:46:24;;;;;;;3.67;1.40;;;;;;;;;;4937650;28;20042;-72
2022/10/13 13:48:52;;;;;;;3.35;2.30;;;;;;;;;;4922976;28;20039;-72
2022/10/13 13:51:23;;;;;;;2.70;1.40;;;;;;;;;;4948222;28;20784;-73
2022/10/13 13:53:52;;;;;;;3.55;1.40;;;;;;;;;;4933088;28;20811;-73
2022/10/13 13:56:38;;;;;;;3.00;1.10;;;;;;;;;;4913569;28;20029;-73
2022/10/13 13:59:15;;;;;;;2.33;1.13;;;;;;;;;;4914275;28;21886;-72
2022/10/13 14:01:49;;;;;;;2.58;1.23;;;;;;;;;;4937345;28;20066;-73
2022/10/13 14:04:26;;;;;;;7.95;3.78;;;;;;;;;;4926990;28;20053;-73
2022/10/13 14:06:59;;;;;;;4.72;1.98;;;;;;;;;;4915610;28;20253;-74
2022/10/13 14:09:33;;;;;;;2.42;1.45;;;;;;;;;;4904853;28;20610;-73
2022/10/13 14:11:59;;;;;;;2.28;1.88;;;;;;;;;;4929388;28;20832;-73
2022/10/13 14:14:28;;;;;;;2.45;1.50;;;;;;;;;;4900124;28;20350;-73
2022/10/13 14:16:56;;;;;;;4.28;1.90;;;;;;;;;;4953241;28;20041;-73
2022/10/13 14:19:31;;;;;;;3.72;1.50;;;;;;;;;;4935505;28;20047;-73
2022/10/13 14:22:01;;;;;;;4.20;2.80;;;;;;;;;;4950831;28;20337;-74
2022/10/13 14:24:33;;;;;;;10.77;7.72;;;;;;;;;;4922463;28;20306;-74
2022/10/13 14:27:08;;;;;;;8.88;6.18;;;;;;;;;;4906460;28;20102;-74
2022/10/13 14:29:44;;;;;;;8.95;6.40;;;;;;;;;;4914234;28;20641;-73
2022/10/13 14:32:18;;;;;;;17.10;8.20;;;;;;;;;;4943722;28;20492;-74
2022/10/13 14:34:52;;;;;;;19.08;10.90;;;;;;;;;;4947157;28;20042;-73
2022/10/13 14:40:51;;;;;;;10.30;5.55;;;;;;;;;;4823838;28;20622;-73
2022/10/13 14:43:25;;;;;;;11.43;4.65;;;;;;;;;;4931012;28;20047;-73
2022/10/13 14:45:51;;;;;;;7.20;2.80;;;;;;;;;;4948126;28;20331;-73
2022/10/13 14:48:24;;;;;;;5.28;2.92;;;;;;;;;;4956124;28;22426;-73
2022/10/13 14:51:02;;;;;;;5.80;3.63;;;;;;;;;;4950558;28;20049;-73
2022/10/13 14:53:35;;;;;;;6.90;3.60;;;;;;;;;;4927742;28;20479;-73
2022/10/13 14:56:45;;;;;;;8.02;3.65;;;;;;;;;;4906326;28;20576;-72
2022/10/13 14:59:22;;;;;;;8.50;3.25;;;;;;;;;;4874139;28;20555;-72
2022/10/13 15:01:59;;;;;;;6.85;3.63;;;;;;;;;;4931790;28;20131;-72
2022/10/13 15:04:40;;;;;;;7.45;3.25;;;;;;;;;;4934324;28;20084;-72
2022/10/13 15:07:14;;;;;;;5.32;2.28;;;;;;;;;;4926577;28;20084;-72
2022/10/13 15:09:55;;;;;;;6.20;3.20;;;;;;;;;;4923801;28;20272;-73
2022/10/13 15:12:41;;;;;;;4.28;2.60;;;;;;;;;;4965343;28;20044;-73
2022/10/13 15:15:10;;;;;;;4.07;2.30;;;;;;;;;;4932434;28;20041;-72
2022/10/13 15:17:58;;;;;;;3.70;2.20;;;;;;;;;;4953520;28;20375;-72
2022/10/13 15:20:29;;;;;;;4.90;2.30;;;;;;;;;;4909977;28;20030;-72
2022/10/13 15:22:58;;;;;;;3.90;2.60;;;;;;;;;;4925111;28;20042;-72
2022/10/13 15:25:29;;;;;;;;;;;;;;;;;;4934805;28;20608;-73
2022/10/13 15:28:04;;;;;;;5.85;2.80;;;;;;;;;;4981047;28;19953;-72
2022/10/13 15:30:38;;;;;;;5.63;2.85;;;;;;;;;;4967204;28;20108;-73
2022/10/13 15:33:10;;;;;;;5.03;2.72;;;;;;;;;;4947384;28;20030;-73
2022/10/13 15:35:45;;;;;;;;;;;;;;;;;;4964612;28;20119;-73
2022/10/13 15:38:16;;;;;;;6.95;2.97;;;;;;;;;;4961608;28;20099;-73